Home > Products > Valid Products > TAF

000
FTUS42 KCHS 261123
TAFCHS
TAF
KCHS 261123Z 2612/2712 19005KT P6SM FEW060 SCT250
     FM261900 17009KT P6SM SCT050
     FM270100 VRB03KT P6SM FEW250=



000
FTUS42 KCHS 261123
TAFSAV
TAF
KSAV 261123Z 2612/2712 17004KT P6SM FEW060 SCT250
     FM261900 13009KT P6SM SCT050
     FM270100 VRB03KT P6SM FEW250=



000
FTUS42 KCHS 251126
TAFSAV
TAF
KSAV 251126Z 2512/2612 22004KT P6SM FEW080 SCT250
     FM251730 16008KT P6SM SCT050
     FM260100 VRB02KT P6SM FEW050=



000
FTUS42 KCHS 251126
TAFCHS
TAF
KCHS 251126Z 2512/2612 22004KT P6SM SCT250
     FM251730 19008KT P6SM SCT050
     FM260100 18003KT P6SM FEW050=



000
FTUS42 KCHS 242320
TAFSAV
TAF
KSAV 242320Z 2500/2524 VRB03KT P6SM SKC
     FM251900 18008KT P6SM SCT060=



000
FTUS42 KCHS 242320
TAFCHS
TAF
KCHS 242320Z 2500/2524 20004KT P6SM SKC
     FM251900 18008KT P6SM SCT060=



000
FTUS42 KCHS 241806 AAA
TAFSAV
TAF AMD
KSAV 241806Z 2418/2518 12010KT P6SM SCT060 SCT080
     FM250300 VRB03KT P6SM SCT250=



000
FTUS42 KCHS 241727
TAFCHS
TAF
KCHS 241727Z 2418/2518 VRB06KT P6SM SCT060 SCT080
     FM241900 17010KT P6SM SCT070 SCT090
     FM250300 VRB04KT P6SM SCT250=



000
FTUS42 KCHS 241727
TAFSAV
TAF
KSAV 241727Z 2418/2518 VRB05KT P6SM SCT050 SCT070
     FM241900 12010KT P6SM SCT060 SCT080
     FM250300 VRB03KT P6SM SCT250=



    US Dept of Commerce
    National Oceanic and Atmospheric Administration
    National Weather Service
    1325 East West Highway
    Silver Spring, MD 20910
    Page Author: NWS Internet Services Team
Disclaimer
Information Quality
Credits
Glossary
Privacy Policy
Freedom of Information Act (FOIA)
About Us
Career Opportunities